sensor_id;sensor_type;location;lat;lon;timestamp;P1;durP1;ratioP1;P2;durP2;ratioP2
15454;SDS011;21057;51.024;7.540;2023-06-10T00:01:45;20.00;;;18.38;;
15454;SDS011;21057;51.024;7.540;2023-06-10T00:04:14;20.05;;;18.67;;
15454;SDS011;21057;51.024;7.540;2023-06-10T00:06:41;19.88;;;18.38;;
15454;SDS011;21057;51.024;7.540;2023-06-10T00:09:09;19.80;;;18.40;;
15454;SDS011;21057;51.024;7.540;2023-06-10T00:11:36;19.70;;;18.40;;
15454;SDS011;21057;51.024;7.540;2023-06-10T00:14:03;20.05;;;18.65;;
15454;SDS011;21057;51.024;7.540;2023-06-10T00:16:30;19.80;;;18.60;;
15454;SDS011;21057;51.024;7.540;2023-06-10T00:18:57;20.30;;;18.75;;
15454;SDS011;21057;51.024;7.540;2023-06-10T00:21:27;19.83;;;18.52;;
15454;SDS011;21057;51.024;7.540;2023-06-10T00:23:55;19.65;;;18.35;;
15454;SDS011;21057;51.024;7.540;2023-06-10T00:26:22;19.77;;;18.58;;
15454;SDS011;21057;51.024;7.540;2023-06-10T00:28:49;20.20;;;18.60;;
15454;SDS011;21057;51.024;7.540;2023-06-10T00:31:17;20.30;;;18.80;;
15454;SDS011;21057;51.024;7.540;2023-06-10T00:33:45;19.83;;;18.63;;
15454;SDS011;21057;51.024;7.540;2023-06-10T00:36:12;21.00;;;19.02;;
15454;SDS011;21057;51.024;7.540;2023-06-10T00:38:40;20.08;;;18.67;;
15454;SDS011;21057;51.024;7.540;2023-06-10T00:41:07;20.13;;;18.80;;
15454;SDS011;21057;51.024;7.540;2023-06-10T00:43:33;20.70;;;19.23;;
15454;SDS011;21057;51.024;7.540;2023-06-10T00:46:00;20.08;;;18.67;;
15454;SDS011;21057;51.024;7.540;2023-06-10T00:48:27;19.45;;;18.15;;
15454;SDS011;21057;51.024;7.540;2023-06-10T00:50:55;20.35;;;18.95;;
15454;SDS011;21057;51.024;7.540;2023-06-10T00:53:22;19.80;;;18.27;;
15454;SDS011;21057;51.024;7.540;2023-06-10T00:55:51;19.15;;;17.65;;
15454;SDS011;21057;51.024;7.540;2023-06-10T00:58:18;19.63;;;18.27;;
15454;SDS011;21057;51.024;7.540;2023-06-10T01:00:45;19.75;;;18.17;;
15454;SDS011;21057;51.024;7.540;2023-06-10T01:03:12;20.08;;;18.52;;
15454;SDS011;21057;51.024;7.540;2023-06-10T01:05:42;19.95;;;18.65;;
15454;SDS011;21057;51.024;7.540;2023-06-10T01:08:11;20.52;;;18.77;;
15454;SDS011;21057;51.024;7.540;2023-06-10T01:10:47;19.33;;;18.02;;
15454;SDS011;21057;51.024;7.540;2023-06-10T01:13:18;19.60;;;18.20;;
15454;SDS011;21057;51.024;7.540;2023-06-10T01:15:48;20.70;;;19.25;;
15454;SDS011;21057;51.024;7.540;2023-06-10T01:18:16;19.75;;;18.17;;
15454;SDS011;21057;51.024;7.540;2023-06-10T01:20:43;19.50;;;18.20;;
15454;SDS011;21057;51.024;7.540;2023-06-10T01:23:13;19.35;;;18.02;;
15454;SDS011;21057;51.024;7.540;2023-06-10T01:25:40;19.95;;;18.48;;
15454;SDS011;21057;51.024;7.540;2023-06-10T01:28:10;19.65;;;18.25;;
15454;SDS011;21057;51.024;7.540;2023-06-10T01:30:42;20.60;;;19.02;;
15454;SDS011;21057;51.024;7.540;2023-06-10T01:33:14;20.15;;;18.63;;
15454;SDS011;21057;51.024;7.540;2023-06-10T01:35:43;19.63;;;18.38;;
15454;SDS011;21057;51.024;7.540;2023-06-10T01:38:12;20.60;;;19.15;;
15454;SDS011;21057;51.024;7.540;2023-06-10T01:40:41;19.98;;;18.58;;
15454;SDS011;21057;51.024;7.540;2023-06-10T01:43:09;20.10;;;18.45;;
15454;SDS011;21057;51.024;7.540;2023-06-10T01:45:36;19.27;;;17.98;;
15454;SDS011;21057;51.024;7.540;2023-06-10T01:48:03;21.17;;;19.23;;
15454;SDS011;21057;51.024;7.540;2023-06-10T01:50:30;19.33;;;18.05;;
15454;SDS011;21057;51.024;7.540;2023-06-10T01:52:57;19.70;;;18.38;;
15454;SDS011;21057;51.024;7.540;2023-06-10T01:55:27;19.35;;;18.02;;
15454;SDS011;21057;51.024;7.540;2023-06-10T01:57:54;20.13;;;18.83;;
15454;SDS011;21057;51.024;7.540;2023-06-10T02:00:21;20.08;;;18.77;;
15454;SDS011;21057;51.024;7.540;2023-06-10T02:02:48;21.58;;;19.67;;
15454;SDS011;21057;51.024;7.540;2023-06-10T02:05:15;20.35;;;19.05;;
15454;SDS011;21057;51.024;7.540;2023-06-10T02:07:41;20.08;;;18.70;;
15454;SDS011;21057;51.024;7.540;2023-06-10T02:10:08;20.92;;;19.33;;
15454;SDS011;21057;51.024;7.540;2023-06-10T02:12:37;20.73;;;19.23;;
15454;SDS011;21057;51.024;7.540;2023-06-10T02:15:04;20.17;;;18.55;;
15454;SDS011;21057;51.024;7.540;2023-06-10T02:17:31;19.88;;;18.58;;
15454;SDS011;21057;51.024;7.540;2023-06-10T02:19:58;20.02;;;18.33;;
15454;SDS011;21057;51.024;7.540;2023-06-10T02:22:29;20.55;;;18.92;;
15454;SDS011;21057;51.024;7.540;2023-06-10T02:24:56;20.02;;;18.63;;
15454;SDS011;21057;51.024;7.540;2023-06-10T02:27:23;20.15;;;18.75;;
15454;SDS011;21057;51.024;7.540;2023-06-10T02:29:51;19.83;;;18.10;;
15454;SDS011;21057;51.024;7.540;2023-06-10T02:32:18;19.33;;;18.02;;
15454;SDS011;21057;51.024;7.540;2023-06-10T02:34:45;19.55;;;18.25;;
15454;SDS011;21057;51.024;7.540;2023-06-10T02:37:12;19.48;;;18.20;;
15454;SDS011;21057;51.024;7.540;2023-06-10T02:39:39;20.10;;;18.65;;
15454;SDS011;21057;51.024;7.540;2023-06-10T02:42:06;20.20;;;18.88;;
15454;SDS011;21057;51.024;7.540;2023-06-10T02:44:33;19.65;;;18.15;;
15454;SDS011;21057;51.024;7.540;2023-06-10T02:47:01;19.73;;;18.30;;
15454;SDS011;21057;51.024;7.540;2023-06-10T02:49:28;19.42;;;18.13;;
15454;SDS011;21057;51.024;7.540;2023-06-10T02:51:55;19.40;;;18.10;;
15454;SDS011;21057;51.024;7.540;2023-06-10T02:54:22;20.42;;;18.90;;
15454;SDS011;21057;51.024;7.540;2023-06-10T02:56:50;19.95;;;18.67;;
15454;SDS011;21057;51.024;7.540;2023-06-10T02:59:21;20.83;;;19.42;;
15454;SDS011;21057;51.024;7.540;2023-06-10T03:01:47;19.40;;;18.20;;
15454;SDS011;21057;51.024;7.540;2023-06-10T03:04:16;19.98;;;18.33;;
15454;SDS011;21057;51.024;7.540;2023-06-10T03:06:43;19.90;;;18.50;;
15454;SDS011;21057;51.024;7.540;2023-06-10T03:09:11;19.40;;;18.10;;
15454;SDS011;21057;51.024;7.540;2023-06-10T03:11:38;20.27;;;18.98;;
15454;SDS011;21057;51.024;7.540;2023-06-10T03:14:05;20.80;;;19.23;;
15454;SDS011;21057;51.024;7.540;2023-06-10T03:16:32;20.23;;;18.65;;
15454;SDS011;21057;51.024;7.540;2023-06-10T03:18:59;19.35;;;17.95;;
15454;SDS011;21057;51.024;7.540;2023-06-10T03:21:27;19.58;;;18.02;;
15454;SDS011;21057;51.024;7.540;2023-06-10T03:23:54;19.58;;;18.17;;
15454;SDS011;21057;51.024;7.540;2023-06-10T03:26:20;20.15;;;18.60;;
15454;SDS011;21057;51.024;7.540;2023-06-10T03:28:47;19.92;;;18.27;;
15454;SDS011;21057;51.024;7.540;2023-06-10T03:31:14;20.27;;;18.88;;
15454;SDS011;21057;51.024;7.540;2023-06-10T03:33:42;19.67;;;18.38;;
15454;SDS011;21057;51.024;7.540;2023-06-10T03:36:09;19.83;;;18.13;;
15454;SDS011;21057;51.024;7.540;2023-06-10T03:38:38;19.95;;;18.60;;
15454;SDS011;21057;51.024;7.540;2023-06-10T03:41:04;20.10;;;18.80;;
15454;SDS011;21057;51.024;7.540;2023-06-10T03:43:31;19.10;;;17.85;;
15454;SDS011;21057;51.024;7.540;2023-06-10T03:45:58;20.33;;;18.92;;
15454;SDS011;21057;51.024;7.540;2023-06-10T03:48:25;19.83;;;18.52;;
15454;SDS011;21057;51.024;7.540;2023-06-10T03:50:52;20.13;;;18.70;;
15454;SDS011;21057;51.024;7.540;2023-06-10T03:53:19;20.25;;;18.75;;
15454;SDS011;21057;51.024;7.540;2023-06-10T03:55:47;20.00;;;18.70;;
15454;SDS011;21057;51.024;7.540;2023-06-10T03:58:14;19.55;;;18.35;;
15454;SDS011;21057;51.024;7.540;2023-06-10T04:00:43;20.50;;;19.10;;
15454;SDS011;21057;51.024;7.540;2023-06-10T04:03:10;19.88;;;18.60;;
15454;SDS011;21057;51.024;7.540;2023-06-10T04:05:39;20.17;;;18.88;;
15454;SDS011;21057;51.024;7.540;2023-06-10T04:08:07;19.23;;;18.02;;
15454;SDS011;21057;51.024;7.540;2023-06-10T04:10:34;19.67;;;18.27;;
15454;SDS011;21057;51.024;7.540;2023-06-10T04:13:02;19.55;;;18.27;;
15454;SDS011;21057;51.024;7.540;2023-06-10T04:15:30;20.50;;;19.23;;
15454;SDS011;21057;51.024;7.540;2023-06-10T04:17:58;20.30;;;18.80;;
15454;SDS011;21057;51.024;7.540;2023-06-10T04:20:26;19.45;;;18.25;;
15454;SDS011;21057;51.024;7.540;2023-06-10T04:22:53;19.70;;;18.55;;
15454;SDS011;21057;51.024;7.540;2023-06-10T04:25:20;20.13;;;18.83;;
15454;SDS011;21057;51.024;7.540;2023-06-10T04:27:47;19.08;;;17.98;;
15454;SDS011;21057;51.024;7.540;2023-06-10T04:30:15;19.70;;;18.50;;
15454;SDS011;21057;51.024;7.540;2023-06-10T04:32:43;18.52;;;17.33;;
15454;SDS011;21057;51.024;7.540;2023-06-10T04:35:11;18.90;;;17.60;;
15454;SDS011;21057;51.024;7.540;2023-06-10T04:37:39;18.45;;;17.33;;
15454;SDS011;21057;51.024;7.540;2023-06-10T04:40:06;19.10;;;17.90;;
15454;SDS011;21057;51.024;7.540;2023-06-10T04:42:34;19.58;;;18.38;;
15454;SDS011;21057;51.024;7.540;2023-06-10T04:45:01;19.63;;;18.30;;
15454;SDS011;21057;51.024;7.540;2023-06-10T04:47:30;19.70;;;18.52;;
15454;SDS011;21057;51.024;7.540;2023-06-10T04:49:58;19.48;;;18.27;;
15454;SDS011;21057;51.024;7.540;2023-06-10T04:52:25;18.95;;;17.85;;
15454;SDS011;21057;51.024;7.540;2023-06-10T04:54:52;20.25;;;19.05;;
15454;SDS011;21057;51.024;7.540;2023-06-10T04:57:19;20.08;;;18.58;;
15454;SDS011;21057;51.024;7.540;2023-06-10T04:59:46;20.30;;;19.10;;
15454;SDS011;21057;51.024;7.540;2023-06-10T05:02:13;20.20;;;18.80;;
15454;SDS011;21057;51.024;7.540;2023-06-10T05:04:41;20.38;;;18.98;;
15454;SDS011;21057;51.024;7.540;2023-06-10T05:07:08;19.42;;;18.13;;
15454;SDS011;21057;51.024;7.540;2023-06-10T05:09:35;20.17;;;18.80;;
15454;SDS011;21057;51.024;7.540;2023-06-10T05:12:02;20.13;;;18.80;;
15454;SDS011;21057;51.024;7.540;2023-06-10T05:14:29;19.88;;;18.48;;
15454;SDS011;21057;51.024;7.540;2023-06-10T05:16:56;20.60;;;18.85;;
15454;SDS011;21057;51.024;7.540;2023-06-10T05:19:23;19.30;;;18.02;;
15454;SDS011;21057;51.024;7.540;2023-06-10T05:21:51;20.42;;;18.92;;
15454;SDS011;21057;51.024;7.540;2023-06-10T05:24:18;19.35;;;18.15;;
15454;SDS011;21057;51.024;7.540;2023-06-10T05:26:46;19.55;;;18.30;;
15454;SDS011;21057;51.024;7.540;2023-06-10T05:29:14;19.50;;;18.05;;
15454;SDS011;21057;51.024;7.540;2023-06-10T05:31:41;19.33;;;18.02;;
15454;SDS011;21057;51.024;7.540;2023-06-10T05:34:08;19.88;;;18.58;;
15454;SDS011;21057;51.024;7.540;2023-06-10T05:36:38;19.52;;;18.20;;
15454;SDS011;21057;51.024;7.540;2023-06-10T05:39:06;19.00;;;17.80;;
15454;SDS011;21057;51.024;7.540;2023-06-10T05:41:33;19.58;;;18.38;;
15454;SDS011;21057;51.024;7.540;2023-06-10T05:44:00;19.83;;;18.30;;
15454;SDS011;21057;51.024;7.540;2023-06-10T05:46:27;21.33;;;19.90;;
15454;SDS011;21057;51.024;7.540;2023-06-10T05:48:53;19.58;;;18.30;;
15454;SDS011;21057;51.024;7.540;2023-06-10T05:51:20;20.65;;;19.35;;
15454;SDS011;21057;51.024;7.540;2023-06-10T05:53:47;20.08;;;18.77;;
15454;SDS011;21057;51.024;7.540;2023-06-10T05:56:15;21.05;;;19.75;;
15454;SDS011;21057;51.024;7.540;2023-06-10T05:58:42;20.17;;;18.55;;
15454;SDS011;21057;51.024;7.540;2023-06-10T06:01:09;19.45;;;18.30;;
15454;SDS011;21057;51.024;7.540;2023-06-10T06:03:47;20.52;;;18.88;;
15454;SDS011;21057;51.024;7.540;2023-06-10T06:06:13;20.33;;;18.83;;
15454;SDS011;21057;51.024;7.540;2023-06-10T06:08:40;20.00;;;18.60;;
15454;SDS011;21057;51.024;7.540;2023-06-10T06:11:07;20.73;;;18.85;;
15454;SDS011;21057;51.024;7.540;2023-06-10T06:13:35;20.15;;;18.75;;
15454;SDS011;21057;51.024;7.540;2023-06-10T06:16:02;21.40;;;19.85;;
15454;SDS011;21057;51.024;7.540;2023-06-10T06:18:30;19.70;;;18.50;;
15454;SDS011;21057;51.024;7.540;2023-06-10T06:20:57;20.42;;;19.13;;
15454;SDS011;21057;51.024;7.540;2023-06-10T06:23:24;19.92;;;18.65;;
15454;SDS011;21057;51.024;7.540;2023-06-10T06:25:51;20.55;;;19.15;;
15454;SDS011;21057;51.024;7.540;2023-06-10T06:28:18;20.75;;;19.15;;
15454;SDS011;21057;51.024;7.540;2023-06-10T06:30:47;20.42;;;19.02;;
15454;SDS011;21057;51.024;7.540;2023-06-10T06:33:14;20.10;;;18.73;;
15454;SDS011;21057;51.024;7.540;2023-06-10T06:35:41;19.85;;;18.55;;
15454;SDS011;21057;51.024;7.540;2023-06-10T06:38:08;19.55;;;18.25;;
15454;SDS011;21057;51.024;7.540;2023-06-10T06:40:35;20.02;;;18.73;;
15454;SDS011;21057;51.024;7.540;2023-06-10T06:43:02;19.95;;;18.55;;
15454;SDS011;21057;51.024;7.540;2023-06-10T06:45:29;19.77;;;18.48;;
15454;SDS011;21057;51.024;7.540;2023-06-10T06:47:57;19.98;;;18.27;;
15454;SDS011;21057;51.024;7.540;2023-06-10T06:50:24;19.25;;;18.13;;
15454;SDS011;21057;51.024;7.540;2023-06-10T06:52:51;19.65;;;18.35;;
15454;SDS011;21057;51.024;7.540;2023-06-10T06:55:18;19.63;;;18.42;;
15454;SDS011;21057;51.024;7.540;2023-06-10T06:57:45;18.88;;;17.58;;
15454;SDS011;21057;51.024;7.540;2023-06-10T07:00:17;19.70;;;18.30;;
15454;SDS011;21057;51.024;7.540;2023-06-10T07:02:44;18.95;;;17.65;;
15454;SDS011;21057;51.024;7.540;2023-06-10T07:05:15;18.63;;;17.33;;
15454;SDS011;21057;51.024;7.540;2023-06-10T07:07:42;18.70;;;17.48;;
15454;SDS011;21057;51.024;7.540;2023-06-10T07:10:09;19.60;;;18.30;;
15454;SDS011;21057;51.024;7.540;2023-06-10T07:12:37;19.05;;;17.75;;
15454;SDS011;21057;51.024;7.540;2023-06-10T07:15:04;20.02;;;18.70;;
15454;SDS011;21057;51.024;7.540;2023-06-10T07:17:33;20.05;;;18.75;;
15454;SDS011;21057;51.024;7.540;2023-06-10T07:20:00;19.83;;;18.40;;
15454;SDS011;21057;51.024;7.540;2023-06-10T07:22:29;20.13;;;18.73;;
15454;SDS011;21057;51.024;7.540;2023-06-10T07:24:57;19.52;;;18.20;;
15454;SDS011;21057;51.024;7.540;2023-06-10T07:27:25;19.83;;;18.52;;
15454;SDS011;21057;51.024;7.540;2023-06-10T07:29:52;19.73;;;18.25;;
15454;SDS011;21057;51.024;7.540;2023-06-10T07:32:19;20.50;;;19.10;;
15454;SDS011;21057;51.024;7.540;2023-06-10T07:34:48;20.58;;;19.20;;
15454;SDS011;21057;51.024;7.540;2023-06-10T07:37:15;19.65;;;18.35;;
15454;SDS011;21057;51.024;7.540;2023-06-10T07:39:46;19.58;;;18.10;;
15454;SDS011;21057;51.024;7.540;2023-06-10T07:42:14;19.73;;;18.45;;
15454;SDS011;21057;51.024;7.540;2023-06-10T07:44:41;19.42;;;18.23;;
15454;SDS011;21057;51.024;7.540;2023-06-10T07:47:09;19.98;;;18.67;;
15454;SDS011;21057;51.024;7.540;2023-06-10T07:49:36;19.25;;;17.90;;
15454;SDS011;21057;51.024;7.540;2023-06-10T07:52:03;19.42;;;18.02;;
15454;SDS011;21057;51.024;7.540;2023-06-10T07:54:30;19.00;;;17.80;;
15454;SDS011;21057;51.024;7.540;2023-06-10T07:56:58;18.38;;;17.17;;
15454;SDS011;21057;51.024;7.540;2023-06-10T07:59:26;19.35;;;18.02;;
15454;SDS011;21057;51.024;7.540;2023-06-10T08:01:53;19.25;;;17.92;;
15454;SDS011;21057;51.024;7.540;2023-06-10T08:04:20;18.77;;;17.38;;
15454;SDS011;21057;51.024;7.540;2023-06-10T08:06:46;19.65;;;18.35;;
15454;SDS011;21057;51.024;7.540;2023-06-10T08:09:13;19.67;;;18.38;;
15454;SDS011;21057;51.024;7.540;2023-06-10T08:11:40;20.40;;;19.10;;
15454;SDS011;21057;51.024;7.540;2023-06-10T08:14:14;19.63;;;18.33;;
15454;SDS011;21057;51.024;7.540;2023-06-10T08:16:45;19.15;;;17.77;;
15454;SDS011;21057;51.024;7.540;2023-06-10T08:19:18;19.27;;;17.98;;
15454;SDS011;21057;51.024;7.540;2023-06-10T08:21:46;18.98;;;17.88;;
15454;SDS011;21057;51.024;7.540;2023-06-10T08:24:13;19.38;;;18.08;;
15454;SDS011;21057;51.024;7.540;2023-06-10T08:26:43;19.67;;;18.38;;
15454;SDS011;21057;51.024;7.540;2023-06-10T08:29:13;19.27;;;17.88;;
15454;SDS011;21057;51.024;7.540;2023-06-10T08:31:41;20.05;;;18.60;;
15454;SDS011;21057;51.024;7.540;2023-06-10T08:34:10;19.00;;;17.63;;
15454;SDS011;21057;51.024;7.540;2023-06-10T08:36:45;18.60;;;17.40;;
15454;SDS011;21057;51.024;7.540;2023-06-10T08:39:13;19.08;;;17.83;;
15454;SDS011;21057;51.024;7.540;2023-06-10T08:41:42;19.20;;;17.70;;
15454;SDS011;21057;51.024;7.540;2023-06-10T08:46:53;19.20;;;17.75;;
15454;SDS011;21057;51.024;7.540;2023-06-10T08:49:24;18.70;;;17.50;;
15454;SDS011;21057;51.024;7.540;2023-06-10T08:51:57;19.60;;;18.08;;
15454;SDS011;21057;51.024;7.540;2023-06-10T08:54:27;19.10;;;17.80;;
15454;SDS011;21057;51.024;7.540;2023-06-10T08:56:58;18.92;;;17.65;;
15454;SDS011;21057;51.024;7.540;2023-06-10T08:59:30;19.40;;;18.17;;
15454;SDS011;21057;51.024;7.540;2023-06-10T09:01:58;19.27;;;17.98;;
15454;SDS011;21057;51.024;7.540;2023-06-10T09:04:26;19.63;;;18.15;;
15454;SDS011;21057;51.024;7.540;2023-06-10T09:06:53;20.95;;;19.35;;
15454;SDS011;21057;51.024;7.540;2023-06-10T09:09:22;19.77;;;18.40;;
15454;SDS011;21057;51.024;7.540;2023-06-10T09:11:51;19.23;;;17.90;;
15454;SDS011;21057;51.024;7.540;2023-06-10T09:14:18;19.13;;;17.73;;
15454;SDS011;21057;51.024;7.540;2023-06-10T09:16:47;20.10;;;18.80;;
15454;SDS011;21057;51.024;7.540;2023-06-10T09:22:38;20.05;;;18.75;;
15454;SDS011;21057;51.024;7.540;2023-06-10T09:25:06;19.42;;;17.95;;
15454;SDS011;21057;51.024;7.540;2023-06-10T09:27:40;19.52;;;18.25;;
15454;SDS011;21057;51.024;7.540;2023-06-10T09:30:24;19.85;;;18.55;;
15454;SDS011;21057;51.024;7.540;2023-06-10T09:32:55;19.45;;;18.10;;
15454;SDS011;21057;51.024;7.540;2023-06-10T09:35:22;19.77;;;18.48;;
15454;SDS011;21057;51.024;7.540;2023-06-10T09:37:59;18.67;;;17.48;;
15454;SDS011;21057;51.024;7.540;2023-06-10T09:40:29;20.23;;;18.83;;
15454;SDS011;21057;51.024;7.540;2023-06-10T09:42:59;20.52;;;19.15;;
15454;SDS011;21057;51.024;7.540;2023-06-10T09:45:29;20.02;;;18.73;;
15454;SDS011;21057;51.024;7.540;2023-06-10T09:48:15;19.90;;;18.50;;
15454;SDS011;21057;51.024;7.540;2023-06-10T09:50:42;18.80;;;17.50;;
15454;SDS011;21057;51.024;7.540;2023-06-10T09:53:10;19.30;;;17.90;;
15454;SDS011;21057;51.024;7.540;2023-06-10T09:55:37;18.77;;;17.58;;
15454;SDS011;21057;51.024;7.540;2023-06-10T09:58:04;18.38;;;17.17;;
15454;SDS011;21057;51.024;7.540;2023-06-10T10:00:31;18.73;;;17.42;;
15454;SDS011;21057;51.024;7.540;2023-06-10T10:02:59;19.10;;;17.80;;
15454;SDS011;21057;51.024;7.540;2023-06-10T10:05:28;19.08;;;17.88;;
15454;SDS011;21057;51.024;7.540;2023-06-10T10:07:55;18.90;;;17.65;;
15454;SDS011;21057;51.024;7.540;2023-06-10T10:10:22;19.58;;;18.27;;
15454;SDS011;21057;51.024;7.540;2023-06-10T10:12:51;19.00;;;17.80;;
15454;SDS011;21057;51.024;7.540;2023-06-10T10:15:21;17.98;;;16.85;;
15454;SDS011;21057;51.024;7.540;2023-06-10T10:17:49;18.52;;;17.27;;
15454;SDS011;21057;51.024;7.540;2023-06-10T10:20:22;18.27;;;17.08;;
15454;SDS011;21057;51.024;7.540;2023-06-10T10:22:55;18.88;;;17.73;;
15454;SDS011;21057;51.024;7.540;2023-06-10T10:25:24;17.95;;;16.85;;
15454;SDS011;21057;51.024;7.540;2023-06-10T10:27:55;18.75;;;17.50;;
15454;SDS011;21057;51.024;7.540;2023-06-10T10:30:26;18.80;;;17.60;;
15454;SDS011;21057;51.024;7.540;2023-06-10T10:32:56;18.90;;;17.70;;
15454;SDS011;21057;51.024;7.540;2023-06-10T10:35:26;18.77;;;17.58;;
15454;SDS011;21057;51.024;7.540;2023-06-10T10:37:55;18.83;;;17.60;;
15454;SDS011;21057;51.024;7.540;2023-06-10T10:40:22;18.80;;;17.42;;
15454;SDS011;21057;51.024;7.540;2023-06-10T10:42:51;19.20;;;17.67;;
15454;SDS011;21057;51.024;7.540;2023-06-10T10:45:18;18.30;;;16.98;;
15454;SDS011;21057;51.024;7.540;2023-06-10T10:47:49;18.58;;;17.38;;
15454;SDS011;21057;51.024;7.540;2023-06-10T10:50:22;18.17;;;16.98;;
15454;SDS011;21057;51.024;7.540;2023-06-10T10:52:55;19.20;;;17.90;;
15454;SDS011;21057;51.024;7.540;2023-06-10T10:55:24;18.58;;;17.27;;
15454;SDS011;21057;51.024;7.540;2023-06-10T10:57:53;18.73;;;17.42;;
15454;SDS011;21057;51.024;7.540;2023-06-10T11:00:28;18.42;;;17.23;;
15454;SDS011;21057;51.024;7.540;2023-06-10T11:02:59;18.67;;;17.30;;
15454;SDS011;21057;51.024;7.540;2023-06-10T11:05:37;18.67;;;17.48;;
15454;SDS011;21057;51.024;7.540;2023-06-10T11:08:07;18.38;;;17.23;;
15454;SDS011;21057;51.024;7.540;2023-06-10T11:10:35;19.30;;;17.98;;
15454;SDS011;21057;51.024;7.540;2023-06-10T11:13:06;19.17;;;17.98;;
15454;SDS011;21057;51.024;7.540;2023-06-10T11:15:38;19.92;;;18.63;;
15454;SDS011;21057;51.024;7.540;2023-06-10T11:18:09;20.33;;;18.83;;
15454;SDS011;21057;51.024;7.540;2023-06-10T11:29:03;19.33;;;18.02;;
15454;SDS011;21057;51.024;7.540;2023-06-10T11:31:41;18.30;;;17.20;;
15454;SDS011;21057;51.024;7.540;2023-06-10T11:34:13;18.55;;;17.17;;
15454;SDS011;21057;51.024;7.540;2023-06-10T11:36:41;18.30;;;17.20;;
15454;SDS011;21057;51.024;7.540;2023-06-10T11:39:12;17.83;;;16.73;;
15454;SDS011;21057;51.024;7.540;2023-06-10T11:41:40;18.17;;;16.98;;
15454;SDS011;21057;51.024;7.540;2023-06-10T11:44:08;18.52;;;17.42;;
15454;SDS011;21057;51.024;7.540;2023-06-10T11:46:35;19.40;;;18.10;;
15454;SDS011;21057;51.024;7.540;2023-06-10T11:49:03;18.33;;;17.13;;
15454;SDS011;21057;51.024;7.540;2023-06-10T13:06:23;19.55;;;18.33;;
15454;SDS011;21057;51.024;7.540;2023-06-10T13:08:50;19.35;;;18.05;;
15454;SDS011;21057;51.024;7.540;2023-06-10T13:11:40;18.90;;;17.38;;
15454;SDS011;21057;51.024;7.540;2023-06-10T13:14:31;20.08;;;18.77;;
15454;SDS011;21057;51.024;7.540;2023-06-10T13:16:58;18.52;;;17.30;;
15454;SDS011;21057;51.024;7.540;2023-06-10T13:19:26;18.10;;;17.00;;
15454;SDS011;21057;51.024;7.540;2023-06-10T13:21:54;17.88;;;16.58;;
15454;SDS011;21057;51.024;7.540;2023-06-10T13:24:21;18.58;;;17.38;;
15454;SDS011;21057;51.024;7.540;2023-06-10T13:26:48;18.75;;;17.55;;
15454;SDS011;21057;51.024;7.540;2023-06-10T13:29:15;18.80;;;17.50;;
15454;SDS011;21057;51.024;7.540;2023-06-10T13:31:42;18.35;;;17.15;;
15454;SDS011;21057;51.024;7.540;2023-06-10T13:34:09;19.17;;;17.85;;
15454;SDS011;21057;51.024;7.540;2023-06-10T13:36:36;18.48;;;17.02;;
15454;SDS011;21057;51.024;7.540;2023-06-10T13:39:05;18.45;;;17.25;;
15454;SDS011;21057;51.024;7.540;2023-06-10T13:41:32;19.27;;;18.08;;
15454;SDS011;21057;51.024;7.540;2023-06-10T13:43:59;18.27;;;16.98;;
15454;SDS011;21057;51.024;7.540;2023-06-10T13:46:26;18.08;;;16.83;;
15454;SDS011;21057;51.024;7.540;2023-06-10T13:48:52;18.05;;;16.85;;
15454;SDS011;21057;51.024;7.540;2023-06-10T13:51:19;17.77;;;16.60;;
15454;SDS011;21057;51.024;7.540;2023-06-10T13:53:46;17.02;;;15.95;;
15454;SDS011;21057;51.024;7.540;2023-06-10T13:56:14;17.55;;;16.45;;
15454;SDS011;21057;51.024;7.540;2023-06-10T13:58:41;17.80;;;16.42;;
15454;SDS011;21057;51.024;7.540;2023-06-10T14:01:08;17.90;;;16.75;;
15454;SDS011;21057;51.024;7.540;2023-06-10T14:03:35;18.25;;;16.83;;
15454;SDS011;21057;51.024;7.540;2023-06-10T14:06:02;18.00;;;16.90;;
15454;SDS011;21057;51.024;7.540;2023-06-10T14:08:29;17.63;;;16.52;;
15454;SDS011;21057;51.024;7.540;2023-06-10T14:10:56;18.00;;;16.77;;
15454;SDS011;21057;51.024;7.540;2023-06-10T14:13:25;17.35;;;16.10;;
15454;SDS011;21057;51.024;7.540;2023-06-10T14:15:52;18.65;;;17.25;;
15454;SDS011;21057;51.024;7.540;2023-06-10T14:18:18;18.98;;;17.73;;
15454;SDS011;21057;51.024;7.540;2023-06-10T14:20:45;18.58;;;17.48;;
15454;SDS011;21057;51.024;7.540;2023-06-10T14:23:12;18.25;;;17.13;;
15454;SDS011;21057;51.024;7.540;2023-06-10T14:25:42;18.23;;;17.02;;
15454;SDS011;21057;51.024;7.540;2023-06-10T14:28:09;17.48;;;16.38;;
15454;SDS011;21057;51.024;7.540;2023-06-10T14:30:45;17.95;;;16.75;;
15454;SDS011;21057;51.024;7.540;2023-06-10T14:33:12;17.77;;;16.58;;
15454;SDS011;21057;51.024;7.540;2023-06-10T14:35:41;18.00;;;16.90;;
15454;SDS011;21057;51.024;7.540;2023-06-10T14:38:08;18.02;;;16.77;;
15454;SDS011;21057;51.024;7.540;2023-06-10T14:40:35;17.77;;;16.67;;
15454;SDS011;21057;51.024;7.540;2023-06-10T14:43:02;17.92;;;16.75;;
15454;SDS011;21057;51.024;7.540;2023-06-10T14:45:36;16.88;;;15.82;;
15454;SDS011;21057;51.024;7.540;2023-06-10T14:48:05;17.23;;;16.13;;
15454;SDS011;21057;51.024;7.540;2023-06-10T14:50:34;17.58;;;16.48;;
15454;SDS011;21057;51.024;7.540;2023-06-10T14:53:01;17.08;;;15.88;;
15454;SDS011;21057;51.024;7.540;2023-06-10T14:55:28;17.23;;;16.13;;
15454;SDS011;21057;51.024;7.540;2023-06-10T14:57:55;17.95;;;16.45;;
15454;SDS011;21057;51.024;7.540;2023-06-10T15:00:23;17.60;;;16.38;;
15454;SDS011;21057;51.024;7.540;2023-06-10T15:02:50;17.70;;;16.40;;
15454;SDS011;21057;51.024;7.540;2023-06-10T15:05:19;18.10;;;16.90;;
15454;SDS011;21057;51.024;7.540;2023-06-10T15:07:46;18.50;;;17.30;;
15454;SDS011;21057;51.024;7.540;2023-06-10T15:10:14;17.92;;;16.80;;
15454;SDS011;21057;51.024;7.540;2023-06-10T15:12:41;18.30;;;17.20;;
15454;SDS011;21057;51.024;7.540;2023-06-10T15:15:08;18.02;;;16.85;;
15454;SDS011;21057;51.024;7.540;2023-06-10T15:17:35;18.83;;;17.40;;
15454;SDS011;21057;51.024;7.540;2023-06-10T15:20:03;17.90;;;16.80;;
15454;SDS011;21057;51.024;7.540;2023-06-10T15:22:32;17.50;;;16.33;;
15454;SDS011;21057;51.024;7.540;2023-06-10T15:24:59;16.45;;;15.45;;
15454;SDS011;21057;51.024;7.540;2023-06-10T15:27:26;16.95;;;15.95;;
15454;SDS011;21057;51.024;7.540;2023-06-10T15:29:52;17.58;;;16.17;;
15454;SDS011;21057;51.024;7.540;2023-06-10T15:32:19;17.35;;;16.25;;
15454;SDS011;21057;51.024;7.540;2023-06-10T15:34:46;18.10;;;16.80;;
15454;SDS011;21057;51.024;7.540;2023-06-10T15:37:13;17.08;;;15.98;;
15454;SDS011;21057;51.024;7.540;2023-06-10T15:39:42;16.65;;;15.65;;
15454;SDS011;21057;51.024;7.540;2023-06-10T15:42:09;17.83;;;16.65;;
15454;SDS011;21057;51.024;7.540;2023-06-10T15:44:36;17.85;;;16.75;;
15454;SDS011;21057;51.024;7.540;2023-06-10T15:47:03;17.90;;;16.75;;
15454;SDS011;21057;51.024;7.540;2023-06-10T15:49:30;17.20;;;16.10;;
15454;SDS011;21057;51.024;7.540;2023-06-10T15:51:57;17.30;;;15.95;;
15454;SDS011;21057;51.024;7.540;2023-06-10T15:54:24;18.45;;;16.95;;
15454;SDS011;21057;51.024;7.540;2023-06-10T15:56:52;16.58;;;15.55;;